createdAt,value
2023-03-22T00:01:43.229Z,77.70
2023-03-22T00:04:10.834Z,77.70
2023-03-22T00:06:38.438Z,82.43
2023-03-22T00:09:06.636Z,78.30
2023-03-22T00:11:34.587Z,81.60
2023-03-22T00:14:02.324Z,85.07
2023-03-22T00:16:29.994Z,79.97
2023-03-22T00:18:57.871Z,94.18
2023-03-22T00:21:25.630Z,87.88
2023-03-22T00:23:53.237Z,79.30
2023-03-22T00:26:20.850Z,83.18
2023-03-22T00:28:48.591Z,94.72
2023-03-22T00:31:16.683Z,80.93
2023-03-22T00:33:44.831Z,80.85
2023-03-22T00:36:12.829Z,78.30
2023-03-22T00:38:43.208Z,78.80
2023-03-22T00:41:29.684Z,80.93
2023-03-22T00:43:57.804Z,93.40
2023-03-22T00:46:26.130Z,85.15
2023-03-22T00:48:54.030Z,77.28
2023-03-22T00:51:23.419Z,82.22
2023-03-22T00:53:52.355Z,82.93
2023-03-22T00:56:23.089Z,81.13
2023-03-22T00:59:03.124Z,88.18
2023-03-22T01:01:32.015Z,80.50
2023-03-22T01:03:59.862Z,83.57
2023-03-22T01:06:27.543Z,82.78
2023-03-22T01:08:55.300Z,83.70
2023-03-22T01:11:24.192Z,91.60
2023-03-22T01:13:52.640Z,91.68
2023-03-22T01:16:21.151Z,86.38
2023-03-22T01:18:49.507Z,89.93
2023-03-22T01:21:17.343Z,82.20
2023-03-22T01:23:45.808Z,88.78
2023-03-22T01:26:13.903Z,87.78
2023-03-22T01:28:41.850Z,87.50
2023-03-22T01:31:09.549Z,84.43
2023-03-22T01:33:37.808Z,70.47
2023-03-22T01:36:06.117Z,62.60
2023-03-22T01:38:35.997Z,56.70
2023-03-22T01:41:03.725Z,67.47
2023-03-22T01:43:35.126Z,67.93
2023-03-22T01:46:02.998Z,70.63
2023-03-22T01:48:42.334Z,68.28
2023-03-22T01:51:14.020Z,66.18
2023-03-22T01:54:00.563Z,75.90
2023-03-22T01:56:33.928Z,78.10
2023-03-22T01:59:01.869Z,69.22
2023-03-22T02:01:40.939Z,75.97
2023-03-22T02:04:15.378Z,76.35
2023-03-22T02:06:44.628Z,76.88
2023-03-22T02:09:18.306Z,81.15
2023-03-22T02:12:24.894Z,84.53
2023-03-22T02:15:12.306Z,77.65
2023-03-22T02:17:51.744Z,72.45
2023-03-22T02:20:47.148Z,77.85
2023-03-22T02:23:36.271Z,72.70
2023-03-22T02:26:34.218Z,78.88
2023-03-22T02:29:26.365Z,79.75
2023-03-22T02:32:31.802Z,77.97
2023-03-22T02:35:30.842Z,80.35
2023-03-22T02:38:17.613Z,76.60
2023-03-22T02:40:57.921Z,75.72
2023-03-22T02:43:41.747Z,77.72
2023-03-22T02:46:35.069Z,73.13
2023-03-22T02:49:13.220Z,78.03
2023-03-22T02:52:00.096Z,75.78
2023-03-22T02:54:44.071Z,75.63
2023-03-22T02:57:20.838Z,78.15
2023-03-22T02:59:50.839Z,75.32
2023-03-22T03:02:19.762Z,80.68
2023-03-22T03:04:51.486Z,77.60
2023-03-22T03:07:24.290Z,81.15
2023-03-22T03:09:52.626Z,81.53
2023-03-22T03:12:23.370Z,83.82
2023-03-22T03:14:53.083Z,78.80
2023-03-22T03:17:39.026Z,83.03
2023-03-22T03:20:30.204Z,78.60
2023-03-22T03:23:31.318Z,77.93
2023-03-22T03:26:05.314Z,77.93
2023-03-22T03:28:46.639Z,75.97
2023-03-22T03:31:25.912Z,77.72
2023-03-22T03:34:22.174Z,68.38
2023-03-22T03:36:58.496Z,74.85
2023-03-22T03:39:31.021Z,73.90
2023-03-22T03:42:01.118Z,78.88
2023-03-22T03:44:31.532Z,73.95
2023-03-22T03:47:00.205Z,74.65
2023-03-22T03:49:28.114Z,68.85
2023-03-22T03:51:56.827Z,63.60
2023-03-22T03:54:26.074Z,64.65
2023-03-22T03:56:54.289Z,60.20
2023-03-22T03:59:21.774Z,59.63
2023-03-22T04:01:52.547Z,61.00
2023-03-22T04:04:29.456Z,59.47
2023-03-22T04:07:06.091Z,60.08
2023-03-22T04:09:38.742Z,76.15
2023-03-22T04:12:26.394Z,68.57
2023-03-22T04:15:15.349Z,67.05
2023-03-22T04:17:46.578Z,75.83
2023-03-22T04:20:15.859Z,71.65
2023-03-22T04:22:44.169Z,58.53
2023-03-22T04:25:13.196Z,62.17
2023-03-22T04:27:51.322Z,64.82
2023-03-22T04:30:20.409Z,72.18
2023-03-22T04:33:08.042Z,73.68
2023-03-22T04:35:59.378Z,62.67
2023-03-22T04:38:33.859Z,60.08
2023-03-22T04:41:02.321Z,51.88
2023-03-22T04:43:47.135Z,56.70
2023-03-22T04:46:16.757Z,70.38
2023-03-22T04:48:50.546Z,52.95
2023-03-22T04:51:19.271Z,51.35
2023-03-22T04:54:05.163Z,50.15
2023-03-22T04:56:33.192Z,45.63
2023-03-22T04:59:01.432Z,52.17
2023-03-22T05:01:29.292Z,61.08
2023-03-22T05:04:08.930Z,63.90
2023-03-22T05:06:36.443Z,58.17
2023-03-22T05:09:11.455Z,64.25
2023-03-22T05:11:40.691Z,49.38
2023-03-22T05:14:44.122Z,46.25
2023-03-22T05:17:13.613Z,53.08
2023-03-22T05:19:41.566Z,38.15
2023-03-22T05:22:12.115Z,38.22
2023-03-22T05:24:45.595Z,38.65
2023-03-22T05:27:31.303Z,41.30
2023-03-22T05:30:19.727Z,38.83
2023-03-22T05:33:03.321Z,34.53
2023-03-22T05:35:36.107Z,53.17
2023-03-22T05:38:04.942Z,59.17
2023-03-22T05:40:35.700Z,60.00
2023-03-22T05:43:03.654Z,49.10
2023-03-22T05:45:32.568Z,52.85
2023-03-22T05:48:11.143Z,47.60
2023-03-22T05:50:38.867Z,40.80
2023-03-22T05:53:07.012Z,37.45
2023-03-22T05:55:57.635Z,38.92
2023-03-22T05:58:25.100Z,29.50
2023-03-22T06:00:53.286Z,37.00
2023-03-22T06:03:20.749Z,36.55
2023-03-22T06:06:06.816Z,41.72
2023-03-22T06:08:41.630Z,44.92
2023-03-22T06:11:09.316Z,48.83
2023-03-22T06:13:37.835Z,50.67
2023-03-22T06:16:06.903Z,43.15
2023-03-22T06:18:34.765Z,34.60
2023-03-22T06:21:08.250Z,38.10
2023-03-22T06:23:35.773Z,25.20
2023-03-22T06:26:03.370Z,33.17
2023-03-22T06:28:32.429Z,44.22
2023-03-22T06:31:09.537Z,26.35
2023-03-22T06:33:54.852Z,27.40
2023-03-22T06:36:32.426Z,32.15
2023-03-22T06:39:10.768Z,27.38
2023-03-22T06:41:39.902Z,26.20
2023-03-22T06:44:07.426Z,26.30
2023-03-22T06:46:57.964Z,42.58
2023-03-22T06:49:46.945Z,45.33
2023-03-22T06:52:40.869Z,51.92
2023-03-22T06:55:09.469Z,75.90
2023-03-22T06:57:37.156Z,75.72
2023-03-22T07:00:05.675Z,66.30
2023-03-22T07:02:33.816Z,49.63
2023-03-22T07:05:18.552Z,70.45
2023-03-22T07:07:46.594Z,61.40
2023-03-22T07:10:14.170Z,63.55
2023-03-22T07:12:41.924Z,68.65
2023-03-22T07:15:13.337Z,88.03
2023-03-22T07:17:56.326Z,88.13
2023-03-22T07:20:23.973Z,95.43
2023-03-22T07:22:51.733Z,86.88
2023-03-22T07:25:21.859Z,93.80
2023-03-22T07:27:55.273Z,102.97
2023-03-22T07:30:23.633Z,92.18
2023-03-22T07:32:52.058Z,107.93
2023-03-22T07:35:19.665Z,105.82
2023-03-22T07:37:48.991Z,124.40
2023-03-22T07:40:23.387Z,108.53
2023-03-22T07:42:55.930Z,107.65
2023-03-22T07:45:51.952Z,114.53
2023-03-22T07:48:39.114Z,114.53
2023-03-22T07:51:26.711Z,126.78
2023-03-22T07:53:54.346Z,119.78
2023-03-22T07:56:22.030Z,122.93
2023-03-22T07:58:49.946Z,123.65
2023-03-22T08:01:18.766Z,118.07
2023-03-22T08:03:59.782Z,119.93
2023-03-22T08:06:37.912Z,124.43
2023-03-22T08:09:08.553Z,113.60
2023-03-22T08:11:37.256Z,115.80
2023-03-22T08:14:04.965Z,112.22
2023-03-22T08:16:35.953Z,125.55
2023-03-22T08:19:06.077Z,118.60
2023-03-22T08:21:37.386Z,114.50
2023-03-22T08:24:08.105Z,119.73
2023-03-22T08:26:39.432Z,125.63
2023-03-22T08:29:16.716Z,122.78
2023-03-22T08:31:47.748Z,108.28
2023-03-22T08:34:16.266Z,114.53
2023-03-22T08:36:44.368Z,108.55
2023-03-22T08:39:12.575Z,113.78
2023-03-22T08:41:54.462Z,113.65
2023-03-22T08:44:24.325Z,112.10
2023-03-22T08:46:52.487Z,110.40
2023-03-22T08:49:20.621Z,112.43
2023-03-22T08:51:55.039Z,115.03
2023-03-22T08:54:41.029Z,112.97
2023-03-22T08:57:09.507Z,117.45
2023-03-22T09:00:00.164Z,110.87
2023-03-22T09:02:37.746Z,106.20
2023-03-22T09:05:05.824Z,127.15
2023-03-22T09:07:33.746Z,104.30
2023-03-22T09:10:16.850Z,112.95
2023-03-22T09:12:47.345Z,100.05
2023-03-22T09:15:15.510Z,103.18
2023-03-22T09:17:46.850Z,95.22
2023-03-22T09:20:15.214Z,95.00
2023-03-22T09:22:46.221Z,106.43
2023-03-22T09:25:21.282Z,101.80
2023-03-22T09:27:50.021Z,107.38
2023-03-22T09:30:17.349Z,102.93
2023-03-22T09:32:45.990Z,103.28
2023-03-22T09:35:16.532Z,109.30
2023-03-22T09:37:58.995Z,104.47
2023-03-22T09:40:31.131Z,97.68
2023-03-22T09:43:01.895Z,108.45
2023-03-22T09:45:48.899Z,115.65
2023-03-22T09:48:36.963Z,101.50
2023-03-22T09:51:07.736Z,98.20
2023-03-22T09:53:35.195Z,99.47
2023-03-22T09:56:26.712Z,90.97
2023-03-22T09:59:15.898Z,96.68
2023-03-22T10:01:57.314Z,82.30
2023-03-22T10:04:40.268Z,93.05
2023-03-22T10:07:27.101Z,82.25
2023-03-22T10:10:06.869Z,82.80
2023-03-22T10:12:59.534Z,91.80
2023-03-22T10:15:34.242Z,79.78
2023-03-22T10:18:06.547Z,73.70
2023-03-22T10:20:44.194Z,79.50
2023-03-22T10:23:18.098Z,77.35
2023-03-22T10:25:46.771Z,75.20
2023-03-22T10:28:24.950Z,73.85
2023-03-22T10:30:57.244Z,85.18
2023-03-22T10:33:36.263Z,68.45
2023-03-22T10:36:05.881Z,84.63
2023-03-22T10:38:37.561Z,50.72
2023-03-22T10:41:06.742Z,71.85
2023-03-22T10:43:38.615Z,74.03
2023-03-22T10:46:12.990Z,73.82
2023-03-22T10:48:44.589Z,70.35
2023-03-22T10:53:47.839Z,69.47
2023-03-22T10:56:18.835Z,70.95
2023-03-22T10:58:48.122Z,62.97
2023-03-22T11:01:26.114Z,68.25
2023-03-22T11:03:57.770Z,65.18
2023-03-22T11:08:59.658Z,72.15
2023-03-22T11:11:30.546Z,66.97
2023-03-22T11:14:13.256Z,62.17
2023-03-22T11:16:47.676Z,61.13
2023-03-22T11:19:22.784Z,63.30
2023-03-22T11:21:52.223Z,65.07
2023-03-22T11:24:21.777Z,57.53
2023-03-22T11:27:05.034Z,61.15
2023-03-22T11:29:51.143Z,61.15
2023-03-22T11:32:27.714Z,68.72
2023-03-22T11:35:26.882Z,56.67
2023-03-22T11:37:56.039Z,58.17
2023-03-22T11:40:27.089Z,61.10
2023-03-22T11:43:02.556Z,62.95
2023-03-22T11:45:41.591Z,53.92
2023-03-22T11:48:18.967Z,52.80
2023-03-22T11:50:47.610Z,58.33
2023-03-22T11:53:26.785Z,49.80
2023-03-22T11:55:57.870Z,51.75
2023-03-22T11:58:30.466Z,48.67
2023-03-22T12:01:01.656Z,45.30
2023-03-22T12:03:37.633Z,45.22
2023-03-22T12:06:19.696Z,47.20
2023-03-22T12:09:00.396Z,42.53
2023-03-22T12:11:33.801Z,52.88
2023-03-22T12:14:06.063Z,52.83
2023-03-22T12:16:44.940Z,49.13
2023-03-22T12:19:40.586Z,48.83
2023-03-22T12:22:20.476Z,47.75
2023-03-22T12:24:48.146Z,39.03
2023-03-22T12:27:24.472Z,40.22
2023-03-22T12:30:00.639Z,40.40
2023-03-22T12:32:36.901Z,42.65
2023-03-22T12:35:17.218Z,45.60
2023-03-22T12:37:51.650Z,44.72
2023-03-22T12:40:27.202Z,43.83
2023-03-22T12:43:16.218Z,45.58
2023-03-22T12:45:49.287Z,43.72
2023-03-22T12:48:41.159Z,41.53
2023-03-22T12:51:12.777Z,37.92
2023-03-22T12:53:47.447Z,45.88
2023-03-22T12:56:18.965Z,50.58
2023-03-22T12:58:51.817Z,47.03
2023-03-22T13:01:37.504Z,49.13
2023-03-22T13:04:35.763Z,42.67
2023-03-22T13:07:32.007Z,45.30
2023-03-22T13:10:01.280Z,42.53
2023-03-22T13:12:32.757Z,54.15
2023-03-22T13:17:28.901Z,47.92
2023-03-22T13:19:59.504Z,43.08
2023-03-22T13:22:30.537Z,52.30
2023-03-22T13:25:17.108Z,49.28
2023-03-22T13:28:00.759Z,46.28
2023-03-22T13:30:32.911Z,42.33
2023-03-22T13:33:08.797Z,42.67
2023-03-22T13:35:44.838Z,46.05
2023-03-22T13:38:43.122Z,44.85
2023-03-22T13:41:28.781Z,42.63
2023-03-22T13:43:59.363Z,49.90
2023-03-22T13:46:43.732Z,48.47
2023-03-22T13:49:28.786Z,45.30
2023-03-22T13:52:00.971Z,51.45
2023-03-22T13:54:41.428Z,44.92
2023-03-22T13:57:39.374Z,41.53
2023-03-22T14:00:37.837Z,41.03
2023-03-22T14:03:23.523Z,42.88
2023-03-22T14:06:01.920Z,43.05
2023-03-22T14:08:30.725Z,39.78
2023-03-22T14:11:23.909Z,36.08
2023-03-22T14:13:57.163Z,34.92
2023-03-22T14:17:05.400Z,35.40
2023-03-22T14:19:34.794Z,34.10
